sensor_id;sensor_type;location;lat;lon;timestamp;P1;durP1;ratioP1;P2;durP2;ratioP2
31128;SDS011;17777;48.770;8.944;2023-05-14T00:02:19;4.78;;;2.20;;
31128;SDS011;17777;48.770;8.944;2023-05-14T00:04:45;4.45;;;2.30;;
31128;SDS011;17777;48.770;8.944;2023-05-14T00:07:11;3.20;;;2.30;;
31128;SDS011;17777;48.770;8.944;2023-05-14T00:09:37;3.13;;;2.72;;
31128;SDS011;17777;48.770;8.944;2023-05-14T00:12:02;3.05;;;2.60;;
31128;SDS011;17777;48.770;8.944;2023-05-14T00:14:28;3.45;;;2.60;;
31128;SDS011;17777;48.770;8.944;2023-05-14T00:16:54;2.60;;;2.40;;
31128;SDS011;17777;48.770;8.944;2023-05-14T00:19:20;2.92;;;2.60;;
31128;SDS011;17777;48.770;8.944;2023-05-14T00:21:46;3.22;;;2.47;;
31128;SDS011;17777;48.770;8.944;2023-05-14T00:24:12;2.70;;;2.42;;
31128;SDS011;17777;48.770;8.944;2023-05-14T00:26:38;2.42;;;2.22;;
31128;SDS011;17777;48.770;8.944;2023-05-14T00:29:04;2.20;;;2.05;;
31128;SDS011;17777;48.770;8.944;2023-05-14T00:31:30;3.35;;;2.78;;
31128;SDS011;17777;48.770;8.944;2023-05-14T00:33:56;2.53;;;2.33;;
31128;SDS011;17777;48.770;8.944;2023-05-14T00:36:21;2.83;;;2.63;;
31128;SDS011;17777;48.770;8.944;2023-05-14T00:38:47;2.60;;;2.20;;
31128;SDS011;17777;48.770;8.944;2023-05-14T00:41:13;2.63;;;2.30;;
31128;SDS011;17777;48.770;8.944;2023-05-14T00:43:39;2.50;;;2.30;;
31128;SDS011;17777;48.770;8.944;2023-05-14T00:46:05;2.95;;;2.75;;
31128;SDS011;17777;48.770;8.944;2023-05-14T00:48:32;2.90;;;2.70;;
31128;SDS011;17777;48.770;8.944;2023-05-14T00:50:58;2.92;;;2.33;;
31128;SDS011;17777;48.770;8.944;2023-05-14T00:53:25;3.28;;;2.80;;
31128;SDS011;17777;48.770;8.944;2023-05-14T00:55:51;2.80;;;2.60;;
31128;SDS011;17777;48.770;8.944;2023-05-14T00:58:18;3.13;;;2.92;;
31128;SDS011;17777;48.770;8.944;2023-05-14T01:00:44;3.42;;;2.90;;
31128;SDS011;17777;48.770;8.944;2023-05-14T01:03:10;2.95;;;2.65;;
31128;SDS011;17777;48.770;8.944;2023-05-14T01:14:12;2.00;;;1.80;;
31128;SDS011;17777;48.770;8.944;2023-05-14T01:16:46;2.42;;;2.22;;
31128;SDS011;17777;48.770;8.944;2023-05-14T01:19:25;2.03;;;1.92;;
31128;SDS011;17777;48.770;8.944;2023-05-14T01:22:08;2.70;;;1.92;;
31128;SDS011;17777;48.770;8.944;2023-05-14T01:24:35;2.72;;;1.98;;
31128;SDS011;17777;48.770;8.944;2023-05-14T01:27:06;2.40;;;2.20;;
31128;SDS011;17777;48.770;8.944;2023-05-14T01:30:11;2.35;;;2.15;;
31128;SDS011;17777;48.770;8.944;2023-05-14T01:32:38;2.72;;;2.50;;
31128;SDS011;17777;48.770;8.944;2023-05-14T01:35:06;3.05;;;2.35;;
31128;SDS011;17777;48.770;8.944;2023-05-14T01:37:33;2.65;;;2.38;;
31128;SDS011;17777;48.770;8.944;2023-05-14T01:40:03;2.47;;;2.28;;
31128;SDS011;17777;48.770;8.944;2023-05-14T01:42:30;2.67;;;2.47;;
31128;SDS011;17777;48.770;8.944;2023-05-14T01:44:56;3.10;;;2.30;;
31128;SDS011;17777;48.770;8.944;2023-05-14T01:47:22;2.65;;;2.45;;
31128;SDS011;17777;48.770;8.944;2023-05-14T01:49:48;2.30;;;2.10;;
31128;SDS011;17777;48.770;8.944;2023-05-14T01:52:15;2.13;;;1.98;;
31128;SDS011;17777;48.770;8.944;2023-05-14T01:54:41;2.40;;;2.20;;
31128;SDS011;17777;48.770;8.944;2023-05-14T01:57:06;2.95;;;2.65;;
31128;SDS011;17777;48.770;8.944;2023-05-14T01:59:32;2.13;;;1.95;;
31128;SDS011;17777;48.770;8.944;2023-05-14T02:01:58;2.33;;;2.13;;
31128;SDS011;17777;48.770;8.944;2023-05-14T02:04:24;3.20;;;2.63;;
31128;SDS011;17777;48.770;8.944;2023-05-14T02:06:50;2.45;;;2.25;;
31128;SDS011;17777;48.770;8.944;2023-05-14T02:09:15;2.38;;;2.17;;
31128;SDS011;17777;48.770;8.944;2023-05-14T02:11:41;2.50;;;2.30;;
31128;SDS011;17777;48.770;8.944;2023-05-14T02:14:07;2.70;;;2.50;;
31128;SDS011;17777;48.770;8.944;2023-05-14T02:16:33;2.53;;;2.33;;
31128;SDS011;17777;48.770;8.944;2023-05-14T02:18:58;2.53;;;2.33;;
31128;SDS011;17777;48.770;8.944;2023-05-14T02:21:24;2.40;;;2.20;;
31128;SDS011;17777;48.770;8.944;2023-05-14T02:23:50;2.30;;;2.08;;
31128;SDS011;17777;48.770;8.944;2023-05-14T02:26:16;2.28;;;2.08;;
31128;SDS011;17777;48.770;8.944;2023-05-14T02:28:42;4.18;;;2.40;;
31128;SDS011;17777;48.770;8.944;2023-05-14T02:31:11;2.10;;;1.90;;
31128;SDS011;17777;48.770;8.944;2023-05-14T02:33:37;2.42;;;2.22;;
31128;SDS011;17777;48.770;8.944;2023-05-14T02:36:03;2.33;;;2.13;;
31128;SDS011;17777;48.770;8.944;2023-05-14T02:38:28;2.53;;;2.33;;
31128;SDS011;17777;48.770;8.944;2023-05-14T02:40:55;2.92;;;2.63;;
31128;SDS011;17777;48.770;8.944;2023-05-14T02:43:20;2.40;;;2.00;;
31128;SDS011;17777;48.770;8.944;2023-05-14T02:45:46;4.20;;;2.30;;
31128;SDS011;17777;48.770;8.944;2023-05-14T02:48:12;2.72;;;2.20;;
31128;SDS011;17777;48.770;8.944;2023-05-14T02:50:38;2.55;;;2.35;;
31128;SDS011;17777;48.770;8.944;2023-05-14T02:53:04;2.53;;;2.33;;
31128;SDS011;17777;48.770;8.944;2023-05-14T02:55:29;2.30;;;2.10;;
31128;SDS011;17777;48.770;8.944;2023-05-14T02:57:55;1.98;;;1.88;;
31128;SDS011;17777;48.770;8.944;2023-05-14T03:00:21;2.20;;;1.80;;
31128;SDS011;17777;48.770;8.944;2023-05-14T03:02:47;2.00;;;1.90;;
31128;SDS011;17777;48.770;8.944;2023-05-14T03:05:13;2.38;;;2.10;;
31128;SDS011;17777;48.770;8.944;2023-05-14T03:07:39;2.60;;;2.38;;
31128;SDS011;17777;48.770;8.944;2023-05-14T03:10:05;7.68;;;3.03;;
31128;SDS011;17777;48.770;8.944;2023-05-14T03:12:31;3.33;;;2.47;;
31128;SDS011;17777;48.770;8.944;2023-05-14T03:14:57;2.05;;;1.85;;
31128;SDS011;17777;48.770;8.944;2023-05-14T03:17:23;2.83;;;2.20;;
31128;SDS011;17777;48.770;8.944;2023-05-14T03:19:48;2.60;;;2.40;;
31128;SDS011;17777;48.770;8.944;2023-05-14T03:22:14;2.42;;;2.22;;
31128;SDS011;17777;48.770;8.944;2023-05-14T03:24:40;2.63;;;2.42;;
31128;SDS011;17777;48.770;8.944;2023-05-14T03:27:06;2.38;;;2.17;;
31128;SDS011;17777;48.770;8.944;2023-05-14T03:29:32;2.30;;;2.10;;
31128;SDS011;17777;48.770;8.944;2023-05-14T03:31:57;2.17;;;1.98;;
31128;SDS011;17777;48.770;8.944;2023-05-14T03:34:23;2.42;;;2.20;;
31128;SDS011;17777;48.770;8.944;2023-05-14T03:36:49;2.35;;;2.15;;
31128;SDS011;17777;48.770;8.944;2023-05-14T03:39:15;2.25;;;2.08;;
31128;SDS011;17777;48.770;8.944;2023-05-14T03:41:46;2.70;;;2.50;;
31128;SDS011;17777;48.770;8.944;2023-05-14T03:44:12;2.70;;;2.50;;
31128;SDS011;17777;48.770;8.944;2023-05-14T03:46:39;2.70;;;2.50;;
31128;SDS011;17777;48.770;8.944;2023-05-14T03:49:05;2.80;;;2.45;;
31128;SDS011;17777;48.770;8.944;2023-05-14T03:51:31;2.50;;;2.30;;
31128;SDS011;17777;48.770;8.944;2023-05-14T03:53:57;2.65;;;2.45;;
31128;SDS011;17777;48.770;8.944;2023-05-14T03:56:23;2.60;;;2.40;;
31128;SDS011;17777;48.770;8.944;2023-05-14T03:58:51;2.70;;;2.50;;
31128;SDS011;17777;48.770;8.944;2023-05-14T04:01:17;2.55;;;2.35;;
31128;SDS011;17777;48.770;8.944;2023-05-14T04:03:43;2.97;;;2.70;;
31128;SDS011;17777;48.770;8.944;2023-05-14T04:06:09;2.35;;;2.15;;
31128;SDS011;17777;48.770;8.944;2023-05-14T04:08:35;2.45;;;2.25;;
31128;SDS011;17777;48.770;8.944;2023-05-14T04:11:00;2.80;;;2.58;;
31128;SDS011;17777;48.770;8.944;2023-05-14T04:13:26;3.65;;;2.40;;
31128;SDS011;17777;48.770;8.944;2023-05-14T04:15:52;3.45;;;2.45;;
31128;SDS011;17777;48.770;8.944;2023-05-14T04:18:18;2.55;;;2.35;;
31128;SDS011;17777;48.770;8.944;2023-05-14T04:20:44;2.80;;;2.53;;
31128;SDS011;17777;48.770;8.944;2023-05-14T04:23:10;3.78;;;2.80;;
31128;SDS011;17777;48.770;8.944;2023-05-14T04:25:35;2.72;;;2.50;;
31128;SDS011;17777;48.770;8.944;2023-05-14T04:28:01;3.15;;;2.80;;
31128;SDS011;17777;48.770;8.944;2023-05-14T04:30:27;3.22;;;2.70;;
31128;SDS011;17777;48.770;8.944;2023-05-14T04:32:53;2.80;;;2.60;;
31128;SDS011;17777;48.770;8.944;2023-05-14T04:35:19;2.97;;;2.72;;
31128;SDS011;17777;48.770;8.944;2023-05-14T04:37:45;2.88;;;2.67;;
31128;SDS011;17777;48.770;8.944;2023-05-14T04:40:13;2.97;;;2.78;;
31128;SDS011;17777;48.770;8.944;2023-05-14T04:42:41;2.78;;;2.58;;
31128;SDS011;17777;48.770;8.944;2023-05-14T04:45:07;2.67;;;2.47;;
31128;SDS011;17777;48.770;8.944;2023-05-14T04:47:34;2.53;;;2.33;;
31128;SDS011;17777;48.770;8.944;2023-05-14T04:50:00;3.08;;;2.70;;
31128;SDS011;17777;48.770;8.944;2023-05-14T04:52:26;2.75;;;2.42;;
31128;SDS011;17777;48.770;8.944;2023-05-14T04:54:52;2.80;;;2.50;;
31128;SDS011;17777;48.770;8.944;2023-05-14T04:57:18;2.75;;;2.55;;
31128;SDS011;17777;48.770;8.944;2023-05-14T04:59:44;3.10;;;2.80;;
31128;SDS011;17777;48.770;8.944;2023-05-14T05:02:09;3.50;;;2.95;;
31128;SDS011;17777;48.770;8.944;2023-05-14T05:04:35;3.13;;;2.83;;
31128;SDS011;17777;48.770;8.944;2023-05-14T05:07:01;3.80;;;2.70;;
31128;SDS011;17777;48.770;8.944;2023-05-14T05:09:26;3.10;;;2.83;;
31128;SDS011;17777;48.770;8.944;2023-05-14T05:11:52;3.00;;;2.70;;
31128;SDS011;17777;48.770;8.944;2023-05-14T05:14:18;2.58;;;2.38;;
31128;SDS011;17777;48.770;8.944;2023-05-14T05:16:44;3.03;;;2.78;;
31128;SDS011;17777;48.770;8.944;2023-05-14T05:19:10;3.00;;;2.63;;
31128;SDS011;17777;48.770;8.944;2023-05-14T05:21:36;5.28;;;3.10;;
31128;SDS011;17777;48.770;8.944;2023-05-14T05:24:05;2.97;;;2.53;;
31128;SDS011;17777;48.770;8.944;2023-05-14T05:26:32;2.97;;;2.78;;
31128;SDS011;17777;48.770;8.944;2023-05-14T05:29:00;4.03;;;2.92;;
31128;SDS011;17777;48.770;8.944;2023-05-14T05:31:28;2.67;;;2.45;;
31128;SDS011;17777;48.770;8.944;2023-05-14T05:33:54;2.90;;;2.60;;
31128;SDS011;17777;48.770;8.944;2023-05-14T05:36:20;3.45;;;3.15;;
31128;SDS011;17777;48.770;8.944;2023-05-14T05:38:46;2.72;;;2.53;;
31128;SDS011;17777;48.770;8.944;2023-05-14T05:41:12;3.08;;;2.67;;
31128;SDS011;17777;48.770;8.944;2023-05-14T05:43:38;2.80;;;2.60;;
31128;SDS011;17777;48.770;8.944;2023-05-14T05:46:03;3.65;;;3.30;;
31128;SDS011;17777;48.770;8.944;2023-05-14T05:48:29;2.83;;;2.53;;
31128;SDS011;17777;48.770;8.944;2023-05-14T05:50:55;3.05;;;2.63;;
31128;SDS011;17777;48.770;8.944;2023-05-14T05:53:21;3.15;;;2.85;;
31128;SDS011;17777;48.770;8.944;2023-05-14T05:55:47;3.58;;;3.00;;
31128;SDS011;17777;48.770;8.944;2023-05-14T05:58:12;12.75;;;3.92;;
31128;SDS011;17777;48.770;8.944;2023-05-14T06:00:40;4.07;;;2.90;;
31128;SDS011;17777;48.770;8.944;2023-05-14T06:03:05;3.35;;;2.85;;
31128;SDS011;17777;48.770;8.944;2023-05-14T06:05:31;3.65;;;2.78;;
31128;SDS011;17777;48.770;8.944;2023-05-14T06:07:57;3.95;;;3.30;;
31128;SDS011;17777;48.770;8.944;2023-05-14T06:10:23;2.85;;;2.65;;
31128;SDS011;17777;48.770;8.944;2023-05-14T06:12:48;3.50;;;3.20;;
31128;SDS011;17777;48.770;8.944;2023-05-14T06:15:14;3.42;;;3.13;;
31128;SDS011;17777;48.770;8.944;2023-05-14T06:17:40;3.05;;;2.80;;
31128;SDS011;17777;48.770;8.944;2023-05-14T06:20:06;3.88;;;3.20;;
31128;SDS011;17777;48.770;8.944;2023-05-14T06:22:33;3.55;;;3.13;;
31128;SDS011;17777;48.770;8.944;2023-05-14T06:24:59;3.50;;;3.20;;
31128;SDS011;17777;48.770;8.944;2023-05-14T06:27:25;4.25;;;3.10;;
31128;SDS011;17777;48.770;8.944;2023-05-14T06:29:50;3.67;;;3.33;;
31128;SDS011;17777;48.770;8.944;2023-05-14T06:32:16;4.72;;;3.70;;
31128;SDS011;17777;48.770;8.944;2023-05-14T06:34:42;5.15;;;3.78;;
31128;SDS011;17777;48.770;8.944;2023-05-14T06:37:08;4.18;;;3.63;;
31128;SDS011;17777;48.770;8.944;2023-05-14T06:39:35;3.78;;;3.47;;
31128;SDS011;17777;48.770;8.944;2023-05-14T06:42:01;3.65;;;3.33;;
31128;SDS011;17777;48.770;8.944;2023-05-14T06:44:29;3.15;;;2.85;;
31128;SDS011;17777;48.770;8.944;2023-05-14T06:46:55;3.28;;;2.97;;
31128;SDS011;17777;48.770;8.944;2023-05-14T06:49:22;3.97;;;3.53;;
31128;SDS011;17777;48.770;8.944;2023-05-14T06:51:47;3.65;;;3.33;;
31128;SDS011;17777;48.770;8.944;2023-05-14T06:54:13;3.67;;;3.38;;
31128;SDS011;17777;48.770;8.944;2023-05-14T06:56:39;5.80;;;3.58;;
31128;SDS011;17777;48.770;8.944;2023-05-14T06:59:05;3.70;;;3.40;;
31128;SDS011;17777;48.770;8.944;2023-05-14T07:01:30;3.92;;;3.45;;
31128;SDS011;17777;48.770;8.944;2023-05-14T07:03:56;3.78;;;3.38;;
31128;SDS011;17777;48.770;8.944;2023-05-14T07:06:22;3.20;;;2.90;;
31128;SDS011;17777;48.770;8.944;2023-05-14T07:08:49;3.55;;;3.25;;
31128;SDS011;17777;48.770;8.944;2023-05-14T07:11:15;3.88;;;3.58;;
31128;SDS011;17777;48.770;8.944;2023-05-14T07:13:41;3.78;;;3.47;;
31128;SDS011;17777;48.770;8.944;2023-05-14T07:16:07;5.50;;;3.70;;
31128;SDS011;17777;48.770;8.944;2023-05-14T07:18:34;3.80;;;3.50;;
31128;SDS011;17777;48.770;8.944;2023-05-14T07:21:00;3.88;;;3.50;;
31128;SDS011;17777;48.770;8.944;2023-05-14T07:23:25;4.72;;;4.05;;
31128;SDS011;17777;48.770;8.944;2023-05-14T07:25:51;4.30;;;3.90;;
31128;SDS011;17777;48.770;8.944;2023-05-14T07:28:17;4.13;;;3.70;;
31128;SDS011;17777;48.770;8.944;2023-05-14T07:30:43;3.67;;;3.38;;
31128;SDS011;17777;48.770;8.944;2023-05-14T07:33:08;3.67;;;3.38;;
31128;SDS011;17777;48.770;8.944;2023-05-14T07:35:34;3.85;;;3.47;;
31128;SDS011;17777;48.770;8.944;2023-05-14T07:38:00;4.28;;;3.88;;
31128;SDS011;17777;48.770;8.944;2023-05-14T07:40:27;5.78;;;3.70;;
31128;SDS011;17777;48.770;8.944;2023-05-14T07:42:52;4.13;;;3.53;;
31128;SDS011;17777;48.770;8.944;2023-05-14T07:45:18;4.13;;;3.72;;
31128;SDS011;17777;48.770;8.944;2023-05-14T07:47:44;3.80;;;3.50;;
31128;SDS011;17777;48.770;8.944;2023-05-14T07:50:10;4.50;;;3.58;;
31128;SDS011;17777;48.770;8.944;2023-05-14T07:52:36;4.03;;;3.63;;
31128;SDS011;17777;48.770;8.944;2023-05-14T07:55:02;3.90;;;3.50;;
31128;SDS011;17777;48.770;8.944;2023-05-14T07:57:28;3.92;;;3.63;;
31128;SDS011;17777;48.770;8.944;2023-05-14T07:59:55;4.40;;;3.60;;
31128;SDS011;17777;48.770;8.944;2023-05-14T08:02:20;7.07;;;3.88;;
31128;SDS011;17777;48.770;8.944;2023-05-14T08:04:46;4.03;;;3.67;;
31128;SDS011;17777;48.770;8.944;2023-05-14T08:07:12;4.57;;;3.15;;
31128;SDS011;17777;48.770;8.944;2023-05-14T08:09:38;4.10;;;3.70;;
31128;SDS011;17777;48.770;8.944;2023-05-14T08:12:04;4.05;;;3.60;;
31128;SDS011;17777;48.770;8.944;2023-05-14T08:14:30;4.40;;;4.00;;
31128;SDS011;17777;48.770;8.944;2023-05-14T08:16:56;5.40;;;4.03;;
31128;SDS011;17777;48.770;8.944;2023-05-14T08:19:22;4.30;;;3.90;;
31128;SDS011;17777;48.770;8.944;2023-05-14T08:21:48;4.00;;;3.60;;
31128;SDS011;17777;48.770;8.944;2023-05-14T08:24:15;4.35;;;3.95;;
31128;SDS011;17777;48.770;8.944;2023-05-14T08:26:42;4.93;;;3.92;;
31128;SDS011;17777;48.770;8.944;2023-05-14T08:29:08;4.38;;;3.97;;
31128;SDS011;17777;48.770;8.944;2023-05-14T08:31:34;4.43;;;4.03;;
31128;SDS011;17777;48.770;8.944;2023-05-14T08:34:00;4.50;;;4.03;;
31128;SDS011;17777;48.770;8.944;2023-05-14T08:36:26;5.38;;;4.00;;
31128;SDS011;17777;48.770;8.944;2023-05-14T08:38:51;4.75;;;4.15;;
31128;SDS011;17777;48.770;8.944;2023-05-14T08:41:17;4.00;;;3.63;;
31128;SDS011;17777;48.770;8.944;2023-05-14T08:43:44;4.15;;;3.75;;
31128;SDS011;17777;48.770;8.944;2023-05-14T08:46:36;4.03;;;3.63;;
31128;SDS011;17777;48.770;8.944;2023-05-14T08:52:04;4.60;;;3.92;;
31128;SDS011;17777;48.770;8.944;2023-05-14T08:54:30;4.85;;;4.35;;
31128;SDS011;17777;48.770;8.944;2023-05-14T08:56:56;5.32;;;4.15;;
31128;SDS011;17777;48.770;8.944;2023-05-14T08:59:23;4.20;;;3.80;;
31128;SDS011;17777;48.770;8.944;2023-05-14T09:01:50;5.45;;;4.07;;
31128;SDS011;17777;48.770;8.944;2023-05-14T09:04:19;4.47;;;4.07;;
31128;SDS011;17777;48.770;8.944;2023-05-14T09:06:51;4.25;;;3.85;;
31128;SDS011;17777;48.770;8.944;2023-05-14T09:09:18;4.75;;;4.35;;
31128;SDS011;17777;48.770;8.944;2023-05-14T09:11:47;5.05;;;4.63;;
31128;SDS011;17777;48.770;8.944;2023-05-14T09:14:15;5.38;;;4.88;;
31128;SDS011;17777;48.770;8.944;2023-05-14T09:16:44;4.68;;;4.20;;
31128;SDS011;17777;48.770;8.944;2023-05-14T09:19:12;5.13;;;4.63;;
31128;SDS011;17777;48.770;8.944;2023-05-14T09:21:40;4.90;;;4.45;;
31128;SDS011;17777;48.770;8.944;2023-05-14T09:24:06;4.78;;;4.38;;
31128;SDS011;17777;48.770;8.944;2023-05-14T09:26:32;5.57;;;4.35;;
31128;SDS011;17777;48.770;8.944;2023-05-14T09:28:59;4.45;;;4.05;;
31128;SDS011;17777;48.770;8.944;2023-05-14T09:31:28;4.38;;;3.97;;
31128;SDS011;17777;48.770;8.944;2023-05-14T09:33:55;4.15;;;3.75;;
31128;SDS011;17777;48.770;8.944;2023-05-14T09:36:22;3.88;;;3.47;;
31128;SDS011;17777;48.770;8.944;2023-05-14T09:38:52;4.10;;;3.70;;
31128;SDS011;17777;48.770;8.944;2023-05-14T09:41:20;4.07;;;3.70;;
31128;SDS011;17777;48.770;8.944;2023-05-14T09:43:47;4.75;;;3.88;;
31128;SDS011;17777;48.770;8.944;2023-05-14T09:46:14;4.18;;;3.78;;
31128;SDS011;17777;48.770;8.944;2023-05-14T09:48:40;3.72;;;3.42;;
31128;SDS011;17777;48.770;8.944;2023-05-14T09:51:08;3.75;;;3.40;;
31128;SDS011;17777;48.770;8.944;2023-05-14T09:53:34;3.72;;;3.42;;
31128;SDS011;17777;48.770;8.944;2023-05-14T09:56:00;4.10;;;3.70;;
31128;SDS011;17777;48.770;8.944;2023-05-14T09:58:26;4.40;;;4.00;;
31128;SDS011;17777;48.770;8.944;2023-05-14T10:00:51;2.95;;;2.75;;
31128;SDS011;17777;48.770;8.944;2023-05-14T10:03:18;3.83;;;3.28;;
31128;SDS011;17777;48.770;8.944;2023-05-14T10:05:45;4.53;;;3.67;;
31128;SDS011;17777;48.770;8.944;2023-05-14T10:08:24;4.18;;;3.78;;
31128;SDS011;17777;48.770;8.944;2023-05-14T10:10:55;3.75;;;3.38;;
31128;SDS011;17777;48.770;8.944;2023-05-14T10:13:26;4.47;;;3.88;;
31128;SDS011;17777;48.770;8.944;2023-05-14T10:16:02;4.07;;;3.50;;
31128;SDS011;17777;48.770;8.944;2023-05-14T10:18:38;3.53;;;3.22;;
31128;SDS011;17777;48.770;8.944;2023-05-14T10:21:07;3.53;;;3.22;;
31128;SDS011;17777;48.770;8.944;2023-05-14T10:23:35;4.15;;;3.80;;
31128;SDS011;17777;48.770;8.944;2023-05-14T10:26:02;4.00;;;3.60;;
31128;SDS011;17777;48.770;8.944;2023-05-14T10:28:29;3.75;;;3.40;;
31128;SDS011;17777;48.770;8.944;2023-05-14T10:30:56;3.85;;;3.40;;
31128;SDS011;17777;48.770;8.944;2023-05-14T10:33:24;4.80;;;3.30;;
31128;SDS011;17777;48.770;8.944;2023-05-14T10:36:01;4.18;;;3.78;;
31128;SDS011;17777;48.770;8.944;2023-05-14T10:38:35;4.40;;;4.00;;
31128;SDS011;17777;48.770;8.944;2023-05-14T10:41:06;4.18;;;3.78;;
31128;SDS011;17777;48.770;8.944;2023-05-14T10:43:37;3.60;;;3.30;;
31128;SDS011;17777;48.770;8.944;2023-05-14T10:46:05;3.55;;;3.25;;
31128;SDS011;17777;48.770;8.944;2023-05-14T10:48:33;3.20;;;2.92;;
31128;SDS011;17777;48.770;8.944;2023-05-14T10:51:01;4.53;;;3.20;;
31128;SDS011;17777;48.770;8.944;2023-05-14T10:56:09;3.20;;;2.90;;
31128;SDS011;17777;48.770;8.944;2023-05-14T10:58:37;3.25;;;2.90;;
31128;SDS011;17777;48.770;8.944;2023-05-14T11:01:08;2.90;;;2.60;;
31128;SDS011;17777;48.770;8.944;2023-05-14T11:06:09;3.03;;;2.75;;
31128;SDS011;17777;48.770;8.944;2023-05-14T11:08:38;2.72;;;2.38;;
31128;SDS011;17777;48.770;8.944;2023-05-14T11:11:05;3.67;;;2.50;;
31128;SDS011;17777;48.770;8.944;2023-05-14T11:13:32;3.05;;;2.78;;
31128;SDS011;17777;48.770;8.944;2023-05-14T11:15:59;2.60;;;2.40;;
31128;SDS011;17777;48.770;8.944;2023-05-14T11:18:27;3.33;;;3.03;;
31128;SDS011;17777;48.770;8.944;2023-05-14T11:20:58;5.63;;;3.78;;
31128;SDS011;17777;48.770;8.944;2023-05-14T11:23:25;3.75;;;3.45;;
31128;SDS011;17777;48.770;8.944;2023-05-14T11:25:52;4.55;;;3.78;;
31128;SDS011;17777;48.770;8.944;2023-05-14T11:28:22;4.00;;;3.60;;
31128;SDS011;17777;48.770;8.944;2023-05-14T11:30:50;3.67;;;3.38;;
31128;SDS011;17777;48.770;8.944;2023-05-14T11:33:17;3.67;;;3.38;;
31128;SDS011;17777;48.770;8.944;2023-05-14T11:35:45;3.40;;;3.10;;
31128;SDS011;17777;48.770;8.944;2023-05-14T11:40:50;3.72;;;3.42;;
31128;SDS011;17777;48.770;8.944;2023-05-14T11:43:20;3.47;;;3.17;;
31128;SDS011;17777;48.770;8.944;2023-05-14T11:45:49;3.22;;;2.92;;
31128;SDS011;17777;48.770;8.944;2023-05-14T11:48:18;3.30;;;3.00;;
31128;SDS011;17777;48.770;8.944;2023-05-14T11:50:47;3.28;;;2.95;;
31128;SDS011;17777;48.770;8.944;2023-05-14T11:53:15;3.33;;;3.03;;
31128;SDS011;17777;48.770;8.944;2023-05-14T11:55:49;5.45;;;3.10;;
31128;SDS011;17777;48.770;8.944;2023-05-14T11:58:17;3.30;;;3.00;;
31128;SDS011;17777;48.770;8.944;2023-05-14T12:00:43;2.80;;;2.60;;
31128;SDS011;17777;48.770;8.944;2023-05-14T12:03:09;3.50;;;2.92;;
31128;SDS011;17777;48.770;8.944;2023-05-14T12:05:38;2.67;;;2.47;;
31128;SDS011;17777;48.770;8.944;2023-05-14T12:08:20;5.07;;;2.92;;
31128;SDS011;17777;48.770;8.944;2023-05-14T12:10:51;2.53;;;2.33;;
31128;SDS011;17777;48.770;8.944;2023-05-14T12:13:18;3.30;;;3.00;;
31128;SDS011;17777;48.770;8.944;2023-05-14T12:15:45;3.17;;;2.88;;
31128;SDS011;17777;48.770;8.944;2023-05-14T12:18:13;2.85;;;2.60;;
31128;SDS011;17777;48.770;8.944;2023-05-14T12:20:45;3.97;;;2.40;;
31128;SDS011;17777;48.770;8.944;2023-05-14T12:23:12;2.60;;;2.40;;
31128;SDS011;17777;48.770;8.944;2023-05-14T12:25:38;2.35;;;2.17;;
31128;SDS011;17777;48.770;8.944;2023-05-14T12:28:14;2.50;;;2.10;;
31128;SDS011;17777;48.770;8.944;2023-05-14T12:30:40;2.30;;;2.10;;
31128;SDS011;17777;48.770;8.944;2023-05-14T12:33:06;2.13;;;2.00;;
31128;SDS011;17777;48.770;8.944;2023-05-14T12:35:32;2.60;;;2.40;;
31128;SDS011;17777;48.770;8.944;2023-05-14T12:37:57;2.38;;;2.17;;
31128;SDS011;17777;48.770;8.944;2023-05-14T12:40:23;2.50;;;2.30;;
31128;SDS011;17777;48.770;8.944;2023-05-14T12:42:49;2.60;;;2.40;;
31128;SDS011;17777;48.770;8.944;2023-05-14T12:45:15;2.40;;;2.20;;
31128;SDS011;17777;48.770;8.944;2023-05-14T12:47:40;2.63;;;2.38;;
31128;SDS011;17777;48.770;8.944;2023-05-14T12:50:06;2.58;;;2.38;;
31128;SDS011;17777;48.770;8.944;2023-05-14T12:52:32;3.50;;;2.28;;
31128;SDS011;17777;48.770;8.944;2023-05-14T12:54:58;2.50;;;2.30;;
31128;SDS011;17777;48.770;8.944;2023-05-14T12:57:25;2.30;;;2.10;;
31128;SDS011;17777;48.770;8.944;2023-05-14T12:59:52;2.67;;;2.08;;
31128;SDS011;17777;48.770;8.944;2023-05-14T13:02:19;2.45;;;2.25;;
31128;SDS011;17777;48.770;8.944;2023-05-14T13:04:45;3.03;;;2.50;;
31128;SDS011;17777;48.770;8.944;2023-05-14T13:07:11;2.47;;;2.08;;
31128;SDS011;17777;48.770;8.944;2023-05-14T13:09:37;2.40;;;2.20;;
31128;SDS011;17777;48.770;8.944;2023-05-14T13:12:03;2.60;;;2.28;;
31128;SDS011;17777;48.770;8.944;2023-05-14T13:14:29;3.05;;;2.17;;
31128;SDS011;17777;48.770;8.944;2023-05-14T13:16:55;2.42;;;2.22;;
31128;SDS011;17777;48.770;8.944;2023-05-14T13:19:21;2.67;;;2.20;;
31128;SDS011;17777;48.770;8.944;2023-05-14T13:21:47;2.47;;;2.28;;
31128;SDS011;17777;48.770;8.944;2023-05-14T13:24:13;2.30;;;2.10;;
31128;SDS011;17777;48.770;8.944;2023-05-14T13:26:39;3.47;;;2.20;;
31128;SDS011;17777;48.770;8.944;2023-05-14T13:29:04;2.72;;;2.38;;
31128;SDS011;17777;48.770;8.944;2023-05-14T13:31:30;1.88;;;1.77;;
31128;SDS011;17777;48.770;8.944;2023-05-14T13:33:56;3.20;;;2.40;;
31128;SDS011;17777;48.770;8.944;2023-05-14T13:36:23;2.38;;;2.20;;
31128;SDS011;17777;48.770;8.944;2023-05-14T13:38:49;2.20;;;2.00;;
31128;SDS011;17777;48.770;8.944;2023-05-14T13:41:14;2.47;;;2.28;;
31128;SDS011;17777;48.770;8.944;2023-05-14T13:43:40;2.60;;;2.20;;
31128;SDS011;17777;48.770;8.944;2023-05-14T13:46:06;2.25;;;2.00;;
31128;SDS011;17777;48.770;8.944;2023-05-14T13:48:32;2.47;;;2.28;;
31128;SDS011;17777;48.770;8.944;2023-05-14T13:50:58;2.30;;;2.10;;
31128;SDS011;17777;48.770;8.944;2023-05-14T13:53:24;2.45;;;2.25;;
31128;SDS011;17777;48.770;8.944;2023-05-14T13:55:50;2.72;;;1.90;;
31128;SDS011;17777;48.770;8.944;2023-05-14T13:58:24;1.75;;;1.65;;
31128;SDS011;17777;48.770;8.944;2023-05-14T14:00:51;2.28;;;2.08;;
31128;SDS011;17777;48.770;8.944;2023-05-14T14:03:17;2.10;;;2.00;;
31128;SDS011;17777;48.770;8.944;2023-05-14T14:05:43;1.85;;;1.67;;
31128;SDS011;17777;48.770;8.944;2023-05-14T14:08:09;2.00;;;1.80;;
31128;SDS011;17777;48.770;8.944;2023-05-14T14:10:35;3.55;;;1.92;;
31128;SDS011;17777;48.770;8.944;2023-05-14T14:13:03;1.88;;;1.77;;
31128;SDS011;17777;48.770;8.944;2023-05-14T14:15:29;2.13;;;1.92;;
31128;SDS011;17777;48.770;8.944;2023-05-14T14:17:54;2.13;;;1.92;;
31128;SDS011;17777;48.770;8.944;2023-05-14T14:20:20;1.77;;;1.67;;
31128;SDS011;17777;48.770;8.944;2023-05-14T14:22:46;1.67;;;1.58;;
31128;SDS011;17777;48.770;8.944;2023-05-14T14:25:12;2.28;;;1.70;;
31128;SDS011;17777;48.770;8.944;2023-05-14T14:27:38;1.60;;;1.50;;
31128;SDS011;17777;48.770;8.944;2023-05-14T14:30:08;1.65;;;1.55;;
31128;SDS011;17777;48.770;8.944;2023-05-14T14:32:46;1.80;;;1.70;;
31128;SDS011;17777;48.770;8.944;2023-05-14T14:35:13;2.40;;;1.83;;
31128;SDS011;17777;48.770;8.944;2023-05-14T14:37:41;1.67;;;1.58;;
31128;SDS011;17777;48.770;8.944;2023-05-14T14:40:09;1.70;;;1.60;;
31128;SDS011;17777;48.770;8.944;2023-05-14T14:44:49;2.15;;;1.70;;
31128;SDS011;17777;48.770;8.944;2023-05-14T14:47:15;2.03;;;1.83;;
31128;SDS011;17777;48.770;8.944;2023-05-14T14:49:41;2.28;;;1.92;;
31128;SDS011;17777;48.770;8.944;2023-05-14T14:52:07;2.00;;;1.80;;
31128;SDS011;17777;48.770;8.944;2023-05-14T14:54:33;2.00;;;1.48;;
31128;SDS011;17777;48.770;8.944;2023-05-14T14:56:58;2.72;;;2.00;;
31128;SDS011;17777;48.770;8.944;2023-05-14T14:59:24;2.28;;;1.92;;
31128;SDS011;17777;48.770;8.944;2023-05-14T15:01:50;1.85;;;1.75;;
31128;SDS011;17777;48.770;8.944;2023-05-14T15:04:16;1.70;;;1.60;;
31128;SDS011;17777;48.770;8.944;2023-05-14T15:06:41;1.83;;;1.73;;
31128;SDS011;17777;48.770;8.944;2023-05-14T15:09:07;2.28;;;2.08;;